createdAt,value
2022-11-30T00:01:14.384Z,7.41
2022-11-30T00:03:41.501Z,7.38
2022-11-30T00:06:11.342Z,7.42
2022-11-30T00:08:38.679Z,7.43
2022-11-30T00:11:14.767Z,7.08
2022-11-30T00:13:42.027Z,7.25
2022-11-30T00:16:10.088Z,7.44
2022-11-30T00:18:37.688Z,7.48
2022-11-30T00:21:08.587Z,7.44
2022-11-30T00:23:40.197Z,7.37
2022-11-30T00:26:09.743Z,7.31
2022-11-30T00:28:37.929Z,7.11
2022-11-30T00:31:07.876Z,7.49
2022-11-30T00:33:37.345Z,7.36
2022-11-30T00:36:07.283Z,7.50
2022-11-30T00:38:34.300Z,7.37
2022-11-30T00:41:02.115Z,7.33
2022-11-30T00:43:30.604Z,6.93
2022-11-30T00:45:57.828Z,7.28
2022-11-30T00:48:25.392Z,7.35
2022-11-30T00:50:52.636Z,7.31
2022-11-30T00:53:20.999Z,7.35
2022-11-30T00:55:48.487Z,7.31
2022-11-30T00:58:15.914Z,7.30
2022-11-30T01:00:43.432Z,7.34
2022-11-30T01:03:10.826Z,7.33
2022-11-30T01:05:38.581Z,7.26
2022-11-30T01:08:07.869Z,7.43
2022-11-30T01:10:36.622Z,7.47
2022-11-30T01:13:04.112Z,7.37
2022-11-30T01:15:31.711Z,7.02
2022-11-30T01:17:59.227Z,7.49
2022-11-30T01:20:26.320Z,7.42
2022-11-30T01:22:55.093Z,7.35
2022-11-30T01:25:22.674Z,7.43
2022-11-30T01:27:50.852Z,7.37
2022-11-30T01:30:18.414Z,7.36
2022-11-30T01:32:45.477Z,7.28
2022-11-30T01:35:12.499Z,7.34
2022-11-30T01:37:39.515Z,7.31
2022-11-30T01:40:07.269Z,7.32
2022-11-30T01:42:34.308Z,7.41
2022-11-30T01:45:02.490Z,7.30
2022-11-30T01:47:40.669Z,7.42
2022-11-30T01:50:32.301Z,7.37
2022-11-30T01:52:59.677Z,7.31
2022-11-30T01:55:36.178Z,7.33
2022-11-30T01:58:16.415Z,7.20
2022-11-30T02:00:47.111Z,7.13
2022-11-30T02:03:28.584Z,7.37
2022-11-30T02:05:55.680Z,7.40
2022-11-30T02:08:23.148Z,7.41
2022-11-30T02:10:54.550Z,7.36
2022-11-30T02:13:38.659Z,7.31
2022-11-30T02:16:44.009Z,7.35
2022-11-30T02:19:13.552Z,7.33
2022-11-30T02:21:51.478Z,7.31
2022-11-30T02:24:51.176Z,7.42
2022-11-30T02:27:28.076Z,7.04
2022-11-30T02:30:06.855Z,7.28
2022-11-30T02:32:39.396Z,7.30
2022-11-30T02:35:08.801Z,7.38
2022-11-30T02:37:37.347Z,7.38
2022-11-30T02:40:14.830Z,7.39
2022-11-30T02:42:42.753Z,7.34
2022-11-30T02:45:11.309Z,7.33
2022-11-30T02:47:49.708Z,6.90
2022-11-30T02:50:43.195Z,7.15
2022-11-30T02:53:10.496Z,7.23
2022-11-30T02:55:37.523Z,7.25
2022-11-30T02:58:05.409Z,7.23
2022-11-30T03:00:32.606Z,7.23
2022-11-30T03:02:59.707Z,7.25
2022-11-30T03:05:26.735Z,7.27
2022-11-30T03:07:53.801Z,7.24
2022-11-30T03:10:20.933Z,7.26
2022-11-30T03:12:48.008Z,7.20
2022-11-30T03:15:15.135Z,7.28
2022-11-30T03:17:42.190Z,7.31
2022-11-30T03:20:09.942Z,7.25
2022-11-30T03:22:36.945Z,7.27
2022-11-30T03:25:04.182Z,7.28
2022-11-30T03:27:31.268Z,7.25
2022-11-30T03:29:58.247Z,7.08
2022-11-30T03:32:25.513Z,7.38
2022-11-30T03:34:52.596Z,6.93
2022-11-30T03:37:19.746Z,7.34
2022-11-30T03:39:46.735Z,7.36
2022-11-30T03:42:13.729Z,7.36
2022-11-30T03:44:40.755Z,7.50
2022-11-30T03:47:07.925Z,7.32
2022-11-30T03:49:34.957Z,7.42
2022-11-30T03:52:02.228Z,7.41
2022-11-30T03:54:29.204Z,7.34
2022-11-30T03:56:56.171Z,7.37
2022-11-30T03:59:23.199Z,7.37
2022-11-30T04:01:50.275Z,7.36
2022-11-30T04:04:17.332Z,7.35
2022-11-30T04:06:44.376Z,7.32
2022-11-30T04:09:12.512Z,7.32
2022-11-30T04:11:39.566Z,7.33
2022-11-30T04:14:06.577Z,7.39
2022-11-30T04:16:33.784Z,7.30
2022-11-30T04:19:00.944Z,7.43
2022-11-30T04:21:27.982Z,7.46
2022-11-30T04:23:54.965Z,7.36
2022-11-30T04:26:21.967Z,7.37
2022-11-30T04:28:49.015Z,7.01
2022-11-30T04:31:16.088Z,7.35
2022-11-30T04:33:43.135Z,7.31
2022-11-30T04:36:19.451Z,7.27
2022-11-30T04:38:47.199Z,7.33
2022-11-30T04:41:14.640Z,7.33
2022-11-30T04:43:41.630Z,7.30
2022-11-30T04:46:08.755Z,6.92
2022-11-30T04:48:35.900Z,7.33
2022-11-30T04:51:06.007Z,7.26
2022-11-30T04:53:33.986Z,7.33
2022-11-30T04:56:10.775Z,7.20
2022-11-30T04:58:38.909Z,7.28
2022-11-30T05:01:06.837Z,7.31
2022-11-30T05:03:33.997Z,7.24
2022-11-30T05:06:01.320Z,7.25
2022-11-30T05:08:28.344Z,7.24
2022-11-30T05:10:55.473Z,7.24
2022-11-30T05:13:26.269Z,7.27
2022-11-30T05:15:53.851Z,7.30
2022-11-30T05:18:21.397Z,7.37
2022-11-30T05:20:50.197Z,6.96
2022-11-30T05:23:17.943Z,7.36
2022-11-30T05:25:45.640Z,7.16
2022-11-30T05:28:13.424Z,7.39
2022-11-30T05:30:41.916Z,7.35
2022-11-30T05:33:09.362Z,7.30
2022-11-30T05:35:36.427Z,7.30
2022-11-30T05:38:04.515Z,7.33
2022-11-30T05:40:33.428Z,7.30
2022-11-30T05:43:02.082Z,7.32
2022-11-30T05:45:29.978Z,7.35
2022-11-30T05:47:57.077Z,7.09
2022-11-30T05:50:24.246Z,7.38
2022-11-30T05:52:56.414Z,7.33
2022-11-30T05:55:24.630Z,7.39
2022-11-30T05:57:51.843Z,7.38
2022-11-30T06:00:19.703Z,7.41
2022-11-30T06:02:46.991Z,7.48
2022-11-30T06:05:14.199Z,7.41
2022-11-30T06:07:41.713Z,7.31
2022-11-30T06:10:09.156Z,7.26
2022-11-30T06:12:36.216Z,7.41
2022-11-30T06:15:03.972Z,7.09
2022-11-30T06:17:31.108Z,7.37
2022-11-30T06:19:58.089Z,7.25
2022-11-30T06:22:25.405Z,7.30
2022-11-30T06:24:52.419Z,7.39
2022-11-30T06:27:19.459Z,7.41
2022-11-30T06:29:46.509Z,7.39
2022-11-30T06:32:13.658Z,7.35
2022-11-30T06:34:40.759Z,7.38
2022-11-30T06:37:07.779Z,7.34
2022-11-30T06:40:04.720Z,7.42
2022-11-30T06:42:22.188Z,7.39
2022-11-30T06:44:49.723Z,7.36
2022-11-30T06:47:16.802Z,7.39
2022-11-30T06:49:43.829Z,7.46
2022-11-30T06:52:10.916Z,7.38
2022-11-30T06:54:37.970Z,7.42
2022-11-30T06:57:05.000Z,7.37
2022-11-30T06:59:32.010Z,7.13
2022-11-30T07:02:02.883Z,7.33
2022-11-30T07:04:34.611Z,6.94
2022-11-30T07:07:01.642Z,7.38
2022-11-30T07:09:28.817Z,7.49
2022-11-30T07:11:55.803Z,7.14
2022-11-30T07:14:22.837Z,7.33
2022-11-30T07:16:49.877Z,7.15
2022-11-30T07:19:17.081Z,7.35
2022-11-30T07:21:44.575Z,7.06
2022-11-30T07:24:30.582Z,7.31
2022-11-30T07:27:00.061Z,7.26
2022-11-30T07:29:27.868Z,7.11
2022-11-30T07:31:55.562Z,7.35
2022-11-30T07:34:22.760Z,7.21
2022-11-30T07:36:49.844Z,7.32
2022-11-30T07:39:17.018Z,7.32
2022-11-30T07:41:44.422Z,7.37
2022-11-30T07:44:11.910Z,7.30
2022-11-30T07:46:39.163Z,7.32
2022-11-30T07:49:07.560Z,7.31
2022-11-30T07:51:35.910Z,7.30
2022-11-30T07:54:03.301Z,7.33
2022-11-30T07:56:30.413Z,7.37
2022-11-30T07:59:00.740Z,7.30
2022-11-30T08:01:31.033Z,7.25
2022-11-30T08:03:59.431Z,7.31
2022-11-30T08:06:28.676Z,7.32
2022-11-30T08:08:58.922Z,7.34
2022-11-30T08:11:30.094Z,7.35
2022-11-30T08:13:57.381Z,7.06
2022-11-30T08:16:27.297Z,7.45
2022-11-30T08:18:58.285Z,7.34
2022-11-30T08:21:25.772Z,7.31
2022-11-30T08:23:58.340Z,7.38
2022-11-30T08:26:30.082Z,7.48
2022-11-30T08:28:58.778Z,7.49
2022-11-30T08:31:31.677Z,7.50
2022-11-30T08:34:15.353Z,7.02
2022-11-30T08:36:44.105Z,7.57
2022-11-30T08:39:14.030Z,7.45
2022-11-30T08:41:41.020Z,7.54
2022-11-30T08:44:08.080Z,7.16
2022-11-30T08:46:50.933Z,7.50
2022-11-30T08:49:23.057Z,7.42
2022-11-30T08:54:42.634Z,7.56
2022-11-30T08:57:09.802Z,7.64
2022-11-30T08:59:37.064Z,7.42
2022-11-30T09:02:04.168Z,7.35
2022-11-30T09:04:31.216Z,7.03
2022-11-30T09:06:59.480Z,7.53
2022-11-30T09:09:26.845Z,7.53
2022-11-30T09:11:53.826Z,7.49
2022-11-30T09:14:20.941Z,7.47
2022-11-30T09:16:48.057Z,7.64
2022-11-30T09:19:15.038Z,7.47
2022-11-30T09:21:45.400Z,7.56
2022-11-30T09:24:16.835Z,7.57
2022-11-30T09:26:43.862Z,7.54
2022-11-30T09:29:10.853Z,7.56
2022-11-30T09:31:37.862Z,7.59
2022-11-30T09:34:05.247Z,7.57
2022-11-30T09:36:33.922Z,7.06
2022-11-30T09:39:01.984Z,7.32
2022-11-30T09:41:56.970Z,7.52
2022-11-30T09:44:45.939Z,7.59
2022-11-30T09:47:22.882Z,7.67
2022-11-30T09:49:52.108Z,7.67
2022-11-30T09:52:33.800Z,7.61
2022-11-30T09:55:06.817Z,7.12
2022-11-30T09:58:01.829Z,7.69
2022-11-30T10:00:29.199Z,7.61
2022-11-30T10:02:59.131Z,7.50
2022-11-30T10:05:40.974Z,7.51
2022-11-30T10:08:23.279Z,7.51
2022-11-30T10:11:12.588Z,7.46
2022-11-30T10:14:00.682Z,7.60
2022-11-30T10:16:55.419Z,7.57
2022-11-30T10:20:00.374Z,7.66
2022-11-30T10:23:13.064Z,7.50
2022-11-30T10:25:54.986Z,7.56
2022-11-30T10:28:53.148Z,7.57
2022-11-30T10:31:29.364Z,7.22
2022-11-30T10:34:03.311Z,7.51
2022-11-30T10:36:39.650Z,7.52
2022-11-30T10:39:19.200Z,7.48
2022-11-30T10:42:04.324Z,7.54
2022-11-30T10:44:39.981Z,7.51
2022-11-30T10:47:20.121Z,7.12
2022-11-30T10:49:50.651Z,7.43
2022-11-30T10:52:26.343Z,7.45
2022-11-30T10:55:00.591Z,7.47
2022-11-30T10:57:32.018Z,7.74
2022-11-30T11:00:03.331Z,7.42
2022-11-30T11:02:35.031Z,7.19
2022-11-30T11:05:15.894Z,7.80
2022-11-30T11:07:50.764Z,7.74
2022-11-30T11:10:45.480Z,8.02
2022-11-30T11:13:35.227Z,7.93
2022-11-30T11:16:03.305Z,7.71
2022-11-30T11:18:51.389Z,7.89
2022-11-30T11:21:20.025Z,7.61
2022-11-30T11:23:51.332Z,8.12
2022-11-30T11:26:27.964Z,7.82
2022-11-30T11:28:59.392Z,7.59
2022-11-30T11:31:40.951Z,7.90
2022-11-30T11:34:31.767Z,7.73
2022-11-30T11:37:19.054Z,7.75
2022-11-30T11:39:59.984Z,7.87
2022-11-30T11:42:30.790Z,7.62
2022-11-30T11:44:59.773Z,7.85
2022-11-30T11:47:32.937Z,8.22
2022-11-30T11:51:05.474Z,8.41
2022-11-30T11:53:24.289Z,8.48
2022-11-30T11:55:59.912Z,8.63
2022-11-30T11:58:37.661Z,8.48
2022-11-30T12:01:38.703Z,8.45
2022-11-30T12:04:02.806Z,8.35
2022-11-30T12:06:32.220Z,8.35
2022-11-30T12:09:14.958Z,8.35
2022-11-30T12:11:43.457Z,7.75
2022-11-30T12:14:16.566Z,8.14
2022-11-30T12:17:10.938Z,8.22
2022-11-30T12:20:07.017Z,8.06
2022-11-30T12:23:12.698Z,8.00
2022-11-30T12:25:44.161Z,8.20
2022-11-30T12:28:29.446Z,8.00
2022-11-30T12:31:17.829Z,8.12
2022-11-30T12:34:04.624Z,7.96
2022-11-30T12:36:49.927Z,8.28
2022-11-30T12:39:52.401Z,8.27
2022-11-30T12:42:36.965Z,7.81
2022-11-30T12:45:12.765Z,8.38
2022-11-30T12:47:45.262Z,8.24
2022-11-30T12:50:37.398Z,8.23
2022-11-30T12:53:10.867Z,8.29
2022-11-30T12:56:17.063Z,8.34
2022-11-30T12:58:49.859Z,8.40
2022-11-30T13:01:34.916Z,8.25
2022-11-30T13:04:16.255Z,8.33
2022-11-30T13:07:24.653Z,8.26
2022-11-30T13:10:04.116Z,8.13
2022-11-30T13:12:38.371Z,8.00
2022-11-30T13:15:21.841Z,7.99
2022-11-30T13:17:50.351Z,8.24
2022-11-30T13:20:27.896Z,8.22
2022-11-30T13:23:13.836Z,8.35
2022-11-30T13:26:08.863Z,8.09
2022-11-30T13:28:42.002Z,8.13
2022-11-30T13:31:14.609Z,8.17
2022-11-30T13:33:54.443Z,8.19
2022-11-30T13:36:24.241Z,8.13
2022-11-30T13:39:14.237Z,8.28
2022-11-30T13:41:43.623Z,8.22
2022-11-30T13:44:33.637Z,8.31
2022-11-30T13:47:03.377Z,8.18
2022-11-30T13:49:35.720Z,8.12
2022-11-30T13:54:57.270Z,8.02
2022-11-30T13:57:24.497Z,8.13
2022-11-30T13:59:55.144Z,7.95
2022-11-30T14:02:34.413Z,8.00
2022-11-30T14:05:16.720Z,8.03
2022-11-30T14:07:46.239Z,8.03
2022-11-30T14:10:33.521Z,7.98
2022-11-30T14:13:05.618Z,8.10
2022-11-30T14:15:38.474Z,8.04
2022-11-30T14:18:18.899Z,8.09
2022-11-30T14:20:51.171Z,7.90
2022-11-30T14:23:23.235Z,7.94
2022-11-30T14:25:52.269Z,7.73
2022-11-30T14:28:23.517Z,7.57
2022-11-30T14:30:51.408Z,7.39
2022-11-30T14:33:25.453Z,7.41
2022-11-30T14:35:57.880Z,7.74
2022-11-30T14:38:30.899Z,7.63
2022-11-30T14:40:58.612Z,7.69
2022-11-30T14:43:25.619Z,7.76
2022-11-30T14:46:04.361Z,7.81
2022-11-30T14:48:32.263Z,7.64
2022-11-30T14:51:03.378Z,7.54
2022-11-30T14:53:49.367Z,7.70
2022-11-30T14:56:29.193Z,7.64
2022-11-30T14:59:09.669Z,7.46
2022-11-30T15:01:39.694Z,7.44
2022-11-30T15:04:12.823Z,7.42
2022-11-30T15:06:40.941Z,7.49
2022-11-30T15:09:17.121Z,7.53
2022-11-30T15:11:46.719Z,7.56
2022-11-30T15:14:13.736Z,7.53
2022-11-30T15:16:58.777Z,7.47
2022-11-30T15:19:32.109Z,7.52
2022-11-30T15:21:59.496Z,7.21
2022-11-30T15:24:29.333Z,7.36
2022-11-30T15:27:13.609Z,7.34
2022-11-30T15:29:56.770Z,7.16
2022-11-30T15:32:24.808Z,7.30
2022-11-30T15:34:57.103Z,7.22
2022-11-30T15:37:33.681Z,7.30
2022-11-30T15:40:03.224Z,7.23
2022-11-30T15:42:39.827Z,7.32
2022-11-30T15:45:35.891Z,7.20
2022-11-30T15:48:03.825Z,7.28
2022-11-30T15:50:39.267Z,7.14
2022-11-30T15:53:28.324Z,7.34
2022-11-30T15:56:07.594Z,7.31
2022-11-30T15:58:45.289Z,7.34
2022-11-30T16:01:14.292Z,7.07
2022-11-30T16:03:59.677Z,7.33
2022-11-30T16:06:44.875Z,6.96
2022-11-30T16:09:32.119Z,7.30
2022-11-30T16:12:02.079Z,7.31
2022-11-30T16:14:29.345Z,7.37
2022-11-30T16:17:16.759Z,7.27
2022-11-30T16:19:58.595Z,6.81
2022-11-30T16:22:29.226Z,6.85
2022-11-30T16:24:56.219Z,7.27
2022-11-30T16:27:23.246Z,7.19
2022-11-30T16:29:52.837Z,7.19
2022-11-30T16:32:20.228Z,7.19
2022-11-30T16:34:47.766Z,7.05
2022-11-30T16:37:14.913Z,7.19
2022-11-30T16:39:42.220Z,7.16
2022-11-30T16:42:12.558Z,6.80
2022-11-30T16:44:39.659Z,7.25
2022-11-30T16:47:06.761Z,7.17
2022-11-30T16:49:33.862Z,7.23
2022-11-30T16:52:00.915Z,7.19
2022-11-30T16:54:28.220Z,7.17
2022-11-30T16:56:55.241Z,7.11
2022-11-30T16:59:22.227Z,7.09
2022-11-30T17:01:53.288Z,7.09
2022-11-30T17:04:22.967Z,6.85
2022-11-30T17:06:51.719Z,6.92
2022-11-30T17:09:21.986Z,6.67
2022-11-30T17:11:50.592Z,7.09
2022-11-30T17:14:19.037Z,7.05
2022-11-30T17:16:46.073Z,7.01
2022-11-30T17:19:13.126Z,7.12
2022-11-30T17:21:42.055Z,7.07
2022-11-30T17:24:09.211Z,7.12
2022-11-30T17:26:36.217Z,7.06
2022-11-30T17:29:03.742Z,7.08
2022-11-30T17:31:30.823Z,7.14
2022-11-30T17:33:58.925Z,6.92
2022-11-30T17:36:26.932Z,7.19
2022-11-30T17:38:54.001Z,7.20
2022-11-30T17:41:22.393Z,7.11
2022-11-30T17:43:49.481Z,7.13
2022-11-30T17:46:18.005Z,7.03
2022-11-30T17:48:45.514Z,7.02
2022-11-30T17:51:13.573Z,7.05
2022-11-30T17:53:42.121Z,6.98
2022-11-30T17:56:15.196Z,6.78
2022-11-30T17:58:44.578Z,6.90
2022-11-30T18:01:20.998Z,6.99
2022-11-30T18:03:48.170Z,6.74
2022-11-30T18:06:15.753Z,6.96
2022-11-30T18:08:43.800Z,6.79
2022-11-30T18:11:16.272Z,6.77
2022-11-30T18:13:43.557Z,6.75
2022-11-30T18:16:13.543Z,6.70
2022-11-30T18:18:47.053Z,7.05
2022-11-30T18:21:17.031Z,6.93
2022-11-30T18:23:44.120Z,7.09
2022-11-30T18:26:14.679Z,6.97
2022-11-30T18:28:42.055Z,6.67
2022-11-30T18:31:09.785Z,6.95
2022-11-30T18:33:37.671Z,7.02
2022-11-30T18:36:07.295Z,6.98
2022-11-30T18:38:37.863Z,6.98
2022-11-30T18:41:06.663Z,6.77
2022-11-30T18:43:34.785Z,6.83
2022-11-30T18:46:06.831Z,6.55
2022-11-30T18:48:34.102Z,6.57
2022-11-30T18:51:11.724Z,6.75
2022-11-30T18:53:38.752Z,6.90
2022-11-30T18:56:20.554Z,6.81
2022-11-30T18:58:48.276Z,6.92
2022-11-30T19:01:18.614Z,7.06
2022-11-30T19:03:52.370Z,6.96
2022-11-30T19:06:19.992Z,6.99
2022-11-30T19:08:47.743Z,6.40
2022-11-30T19:11:16.020Z,6.84
2022-11-30T19:13:44.036Z,6.76
2022-11-30T19:16:14.557Z,6.94
2022-11-30T19:18:42.395Z,6.53
2022-11-30T19:21:14.883Z,6.99
2022-11-30T19:23:41.939Z,6.98
2022-11-30T19:26:10.133Z,6.86
2022-11-30T19:28:38.769Z,6.91
2022-11-30T19:31:08.477Z,6.98
2022-11-30T19:33:37.207Z,6.69
2022-11-30T19:36:06.057Z,6.16
2022-11-30T19:38:33.705Z,6.57
2022-11-30T19:41:06.012Z,6.25
2022-11-30T19:43:33.355Z,6.49
2022-11-30T19:46:07.934Z,6.57
2022-11-30T19:48:35.434Z,6.65
2022-11-30T19:51:14.837Z,6.54
2022-11-30T19:53:44.852Z,6.23
2022-11-30T19:56:14.879Z,6.63
2022-11-30T19:58:44.693Z,6.41
2022-11-30T20:01:13.335Z,6.65
2022-11-30T20:03:40.478Z,6.45
2022-11-30T20:06:07.737Z,6.22
2022-11-30T20:09:15.998Z,6.59
2022-11-30T20:11:42.980Z,6.41
2022-11-30T20:14:15.768Z,6.68
2022-11-30T20:16:43.013Z,6.60
2022-11-30T20:19:10.842Z,6.60
2022-11-30T20:21:38.002Z,6.64
2022-11-30T20:24:07.812Z,6.73
2022-11-30T20:26:37.725Z,6.37
2022-11-30T20:29:06.476Z,6.74
2022-11-30T20:31:36.118Z,6.36
2022-11-30T20:34:03.603Z,6.59
2022-11-30T20:36:30.743Z,6.32
2022-11-30T20:38:58.242Z,6.48
2022-11-30T20:41:26.029Z,6.43
2022-11-30T20:43:53.558Z,6.47
2022-11-30T20:46:27.460Z,6.68
2022-11-30T20:48:55.221Z,6.76
2022-11-30T20:51:31.194Z,6.90
2022-11-30T20:54:05.475Z,6.66
2022-11-30T20:56:37.352Z,6.78
2022-11-30T20:59:08.157Z,6.79
2022-11-30T21:01:35.352Z,6.63
2022-11-30T21:04:02.484Z,6.67
2022-11-30T21:06:30.510Z,6.58
2022-11-30T21:08:58.911Z,6.75
2022-11-30T21:11:27.544Z,6.45
2022-11-30T21:13:56.195Z,6.80
2022-11-30T21:16:28.581Z,6.78
2022-11-30T21:18:58.532Z,6.76
2022-11-30T21:21:30.760Z,6.60
2022-11-30T21:24:03.459Z,6.63
2022-11-30T21:26:31.773Z,6.85
2022-11-30T21:29:04.757Z,6.66
2022-11-30T21:31:31.993Z,6.73
2022-11-30T21:33:59.426Z,6.69
2022-11-30T21:36:26.676Z,6.78
2022-11-30T21:39:05.140Z,6.78
2022-11-30T21:41:34.628Z,6.84
2022-11-30T21:44:02.390Z,6.60
2022-11-30T21:46:29.972Z,6.78
2022-11-30T21:48:57.231Z,6.84
2022-11-30T21:51:26.952Z,6.47
2022-11-30T21:53:56.353Z,6.88
2022-11-30T21:56:26.078Z,6.81
2022-11-30T21:58:53.236Z,6.72
2022-11-30T22:01:27.891Z,6.78
2022-11-30T22:03:56.142Z,6.73
2022-11-30T22:06:24.924Z,6.59
2022-11-30T22:08:52.306Z,6.71
2022-11-30T22:11:22.166Z,6.56
2022-11-30T22:13:51.234Z,6.83
2022-11-30T22:16:19.582Z,6.79
2022-11-30T22:18:47.309Z,6.79
2022-11-30T22:21:19.293Z,6.79
2022-11-30T22:23:49.167Z,6.47
2022-11-30T22:26:30.432Z,6.74
2022-11-30T22:29:00.856Z,6.64
2022-11-30T22:31:33.872Z,6.85
2022-11-30T22:34:01.088Z,6.81
2022-11-30T22:36:30.531Z,6.88
2022-11-30T22:38:59.780Z,6.82
2022-11-30T22:41:29.560Z,6.86
2022-11-30T22:43:57.642Z,6.76
2022-11-30T22:46:30.393Z,6.76
2022-11-30T22:49:02.596Z,6.77
2022-11-30T22:51:31.323Z,6.43
2022-11-30T22:53:59.375Z,6.60
2022-11-30T22:56:28.987Z,6.67
2022-11-30T22:58:59.886Z,6.72
2022-11-30T23:01:32.842Z,6.76
2022-11-30T23:04:09.251Z,6.84
2022-11-30T23:06:37.737Z,6.82
2022-11-30T23:09:07.617Z,6.84
2022-11-30T23:11:34.906Z,6.84
2022-11-30T23:14:05.892Z,6.85
2022-11-30T23:16:32.969Z,6.81
2022-11-30T23:19:00.497Z,6.54
2022-11-30T23:21:30.646Z,6.88
2022-11-30T23:24:00.463Z,6.62
2022-11-30T23:26:30.255Z,6.71
2022-11-30T23:29:03.430Z,6.71
2022-11-30T23:31:35.438Z,6.59
2022-11-30T23:34:18.022Z,6.82
2022-11-30T23:36:45.490Z,6.80
2022-11-30T23:39:14.860Z,6.70
2022-11-30T23:41:42.105Z,6.89
2022-11-30T23:44:10.134Z,6.95
2022-11-30T23:46:37.365Z,6.88
2022-11-30T23:49:04.503Z,6.88
2022-11-30T23:51:31.773Z,6.73
2022-11-30T23:53:58.731Z,6.79
2022-11-30T23:56:25.817Z,6.83
2022-11-30T23:58:53.021Z,6.87
